createdAt,value
2023-03-03T00:01:05.712Z,19.08
2023-03-03T00:03:33.265Z,18.08
2023-03-03T00:06:00.208Z,17.60
2023-03-03T00:08:27.519Z,19.77
2023-03-03T00:10:55.492Z,19.20
2023-03-03T00:13:25.760Z,20.38
2023-03-03T00:15:54.477Z,17.17
2023-03-03T00:18:37.417Z,19.92
2023-03-03T00:21:20.813Z,18.90
2023-03-03T00:23:47.689Z,19.35
2023-03-03T00:26:29.481Z,20.83
2023-03-03T00:28:57.079Z,17.50
2023-03-03T00:31:35.606Z,22.23
2023-03-03T00:34:28.454Z,20.88
2023-03-03T00:36:58.167Z,20.98
2023-03-03T00:39:36.185Z,20.70
2023-03-03T00:42:13.294Z,20.95
2023-03-03T00:47:32.767Z,20.38
2023-03-03T00:50:11.712Z,18.98
2023-03-03T00:52:44.801Z,18.83
2023-03-03T00:55:12.255Z,19.75
2023-03-03T00:57:39.308Z,19.95
2023-03-03T01:00:10.101Z,21.15
2023-03-03T01:02:37.295Z,19.25
2023-03-03T01:05:04.544Z,20.05
2023-03-03T01:07:31.469Z,20.58
2023-03-03T01:09:58.382Z,19.85
2023-03-03T01:12:25.297Z,20.15
2023-03-03T01:14:54.834Z,18.95
2023-03-03T01:17:21.813Z,18.63
2023-03-03T01:19:48.743Z,17.52
2023-03-03T01:22:16.001Z,19.52
2023-03-03T01:24:42.899Z,16.83
2023-03-03T01:27:10.396Z,19.55
2023-03-03T01:29:37.518Z,19.27
2023-03-03T01:32:04.497Z,18.60
2023-03-03T01:34:31.577Z,18.60
2023-03-03T01:37:01.028Z,19.88
2023-03-03T01:39:28.085Z,20.05
2023-03-03T01:41:54.989Z,19.40
2023-03-03T01:44:21.868Z,18.70
2023-03-03T01:46:57.366Z,21.52
2023-03-03T01:49:39.497Z,21.40
2023-03-03T01:52:44.060Z,20.67
2023-03-03T01:55:23.592Z,21.15
2023-03-03T01:58:12.513Z,20.48
2023-03-03T02:00:42.703Z,20.48
2023-03-03T02:03:10.845Z,21.50
2023-03-03T02:05:40.176Z,20.92
2023-03-03T02:08:10.141Z,20.40
2023-03-03T02:10:37.973Z,20.40
2023-03-03T02:13:04.901Z,18.33
2023-03-03T02:15:36.016Z,21.50
2023-03-03T02:18:13.368Z,20.88
2023-03-03T02:21:15.891Z,19.70
2023-03-03T02:24:01.314Z,19.65
2023-03-03T02:29:01.676Z,19.05
2023-03-03T02:31:31.592Z,25.08
2023-03-03T02:33:59.968Z,19.85
2023-03-03T02:36:34.297Z,20.77
2023-03-03T02:39:30.542Z,20.95
2023-03-03T02:42:18.846Z,20.77
2023-03-03T02:44:50.947Z,21.23
2023-03-03T02:47:18.419Z,22.08
2023-03-03T02:49:45.317Z,22.70
2023-03-03T02:52:14.742Z,22.38
2023-03-03T02:54:44.959Z,22.65
2023-03-03T02:57:11.953Z,21.65
2023-03-03T02:59:38.825Z,20.17
2023-03-03T03:02:10.838Z,19.75
2023-03-03T03:04:38.049Z,19.92
2023-03-03T03:07:05.138Z,20.88
2023-03-03T03:09:34.406Z,19.90
2023-03-03T03:12:02.503Z,21.05
2023-03-03T03:14:31.770Z,21.00
2023-03-03T03:16:59.307Z,22.10
2023-03-03T03:19:29.188Z,21.10
2023-03-03T03:21:59.264Z,20.67
2023-03-03T03:24:26.495Z,19.83
2023-03-03T03:26:58.052Z,21.33
2023-03-03T03:29:26.981Z,21.63
2023-03-03T03:31:54.324Z,22.58
2023-03-03T03:34:21.256Z,22.48
2023-03-03T03:36:50.052Z,22.02
2023-03-03T03:39:18.564Z,22.52
2023-03-03T03:41:47.687Z,23.30
2023-03-03T03:44:15.016Z,20.15
2023-03-03T03:46:42.711Z,20.48
2023-03-03T03:49:10.733Z,19.65
2023-03-03T03:51:41.237Z,20.92
2023-03-03T03:54:09.442Z,21.15
2023-03-03T03:56:37.265Z,19.55
2023-03-03T03:59:07.592Z,20.50
2023-03-03T04:04:04.068Z,19.30
2023-03-03T04:06:31.672Z,19.45
2023-03-03T04:08:59.098Z,20.65
2023-03-03T04:11:27.822Z,21.83
2023-03-03T04:13:55.133Z,22.25
2023-03-03T04:16:22.310Z,21.17
2023-03-03T04:18:49.232Z,20.92
2023-03-03T04:21:17.576Z,22.20
2023-03-03T04:23:46.105Z,20.05
2023-03-03T04:26:13.300Z,19.48
2023-03-03T04:28:41.080Z,20.77
2023-03-03T04:31:08.583Z,21.40
2023-03-03T04:33:36.131Z,21.48
2023-03-03T04:36:05.251Z,19.38
2023-03-03T04:38:32.803Z,21.75
2023-03-03T04:41:00.050Z,20.25
2023-03-03T04:43:29.744Z,19.80
2023-03-03T04:45:57.808Z,20.10
2023-03-03T04:48:24.775Z,20.27
2023-03-03T04:50:52.763Z,18.83
2023-03-03T04:53:20.670Z,20.58
2023-03-03T04:55:50.821Z,19.20
2023-03-03T04:58:19.205Z,17.13
2023-03-03T05:00:55.657Z,19.65
2023-03-03T05:05:50.743Z,17.38
2023-03-03T05:08:17.661Z,20.65
2023-03-03T05:10:44.654Z,19.08
2023-03-03T05:13:11.821Z,19.77
2023-03-03T05:15:39.223Z,18.92
2023-03-03T05:18:06.871Z,18.83
2023-03-03T05:20:33.753Z,22.55
2023-03-03T05:23:01.623Z,22.58
2023-03-03T05:25:28.653Z,21.52
2023-03-03T05:27:55.605Z,18.10
2023-03-03T05:30:22.640Z,18.55
2023-03-03T05:32:49.656Z,20.17
2023-03-03T05:35:16.614Z,19.17
2023-03-03T05:37:47.188Z,18.38
2023-03-03T05:40:15.166Z,18.30
2023-03-03T05:42:42.176Z,19.52
2023-03-03T05:45:09.858Z,18.80
2023-03-03T05:47:36.902Z,13.43
2023-03-03T05:50:04.981Z,18.00
2023-03-03T05:52:31.940Z,16.80
2023-03-03T05:54:58.889Z,16.83
2023-03-03T05:57:25.816Z,17.58
2023-03-03T05:59:52.803Z,17.55
2023-03-03T06:02:19.686Z,18.33
2023-03-03T06:04:46.572Z,16.73
2023-03-03T06:07:13.548Z,19.83
2023-03-03T06:09:40.541Z,20.20
2023-03-03T06:12:07.611Z,20.25
2023-03-03T06:14:34.528Z,18.73
2023-03-03T06:17:01.471Z,18.75
2023-03-03T06:19:28.405Z,17.67
2023-03-03T06:21:55.439Z,19.33
2023-03-03T06:24:25.180Z,17.98
2023-03-03T06:26:52.497Z,14.00
2023-03-03T06:29:19.375Z,14.98
2023-03-03T06:31:46.524Z,13.50
2023-03-03T06:34:13.435Z,16.92
2023-03-03T06:36:40.627Z,18.90
2023-03-03T06:39:07.534Z,19.08
2023-03-03T06:41:34.640Z,20.10
2023-03-03T06:44:01.588Z,21.38
2023-03-03T06:46:28.642Z,21.15
2023-03-03T06:48:55.671Z,19.83
2023-03-03T06:51:33.668Z,18.98
2023-03-03T06:54:10.435Z,19.70
2023-03-03T06:56:38.443Z,17.65
2023-03-03T06:59:40.497Z,19.83
2023-03-03T07:02:17.097Z,21.05
2023-03-03T07:04:45.527Z,19.25
2023-03-03T07:07:22.636Z,17.85
2023-03-03T07:09:56.096Z,21.00
2023-03-03T07:12:28.311Z,17.73
2023-03-03T07:15:22.410Z,17.80
2023-03-03T07:17:54.725Z,17.60
2023-03-03T07:20:36.964Z,19.15
2023-03-03T07:23:28.997Z,17.42
2023-03-03T07:25:56.044Z,18.05
2023-03-03T07:28:29.047Z,19.60
2023-03-03T07:30:58.173Z,18.73
2023-03-03T07:33:35.548Z,18.80
2023-03-03T07:36:04.385Z,17.80
2023-03-03T07:38:41.281Z,15.88
2023-03-03T07:43:54.776Z,16.45
2023-03-03T07:46:29.307Z,17.42
2023-03-03T07:49:00.496Z,16.75
2023-03-03T07:51:41.881Z,17.65
2023-03-03T07:54:40.397Z,15.73
2023-03-03T07:57:10.215Z,16.75
2023-03-03T07:59:46.183Z,16.02
2023-03-03T08:02:35.225Z,16.20
2023-03-03T08:05:05.171Z,16.23
2023-03-03T08:07:33.293Z,16.27
2023-03-03T08:10:01.976Z,15.07
2023-03-03T08:12:34.146Z,16.40
2023-03-03T08:15:23.212Z,16.27
2023-03-03T08:17:53.299Z,18.83
2023-03-03T08:20:35.108Z,18.13
2023-03-03T08:23:02.001Z,16.20
2023-03-03T08:25:29.324Z,18.25
2023-03-03T08:27:56.337Z,17.73
2023-03-03T08:30:23.266Z,17.13
2023-03-03T08:32:50.513Z,16.30
2023-03-03T08:35:17.447Z,17.95
2023-03-03T08:37:44.457Z,18.92
2023-03-03T08:40:11.835Z,17.50
2023-03-03T08:42:38.725Z,17.05
2023-03-03T08:45:05.968Z,16.85
2023-03-03T08:47:33.603Z,19.02
2023-03-03T08:50:00.631Z,18.23
2023-03-03T08:52:27.551Z,23.58
2023-03-03T08:54:54.481Z,17.15
2023-03-03T08:57:21.412Z,17.35
2023-03-03T08:59:48.307Z,17.98
2023-03-03T09:02:15.393Z,17.30
2023-03-03T09:04:42.460Z,17.10
2023-03-03T09:07:09.517Z,18.25
2023-03-03T09:09:37.392Z,17.95
2023-03-03T09:12:17.799Z,18.02
2023-03-03T09:14:45.231Z,18.95
2023-03-03T09:17:33.192Z,17.02
2023-03-03T09:20:38.976Z,20.20
2023-03-03T09:23:24.096Z,18.45
2023-03-03T09:25:52.616Z,17.88
2023-03-03T09:28:31.464Z,19.73
2023-03-03T09:31:01.608Z,20.30
2023-03-03T09:33:41.250Z,20.60
2023-03-03T09:36:26.983Z,19.33
2023-03-03T09:38:56.175Z,17.08
2023-03-03T09:42:05.213Z,20.83
2023-03-03T09:45:17.906Z,18.48
2023-03-03T09:48:26.189Z,16.67
2023-03-03T09:51:36.385Z,18.38
2023-03-03T09:54:44.772Z,20.23
2023-03-03T09:57:33.115Z,19.42
2023-03-03T10:00:27.190Z,19.27
2023-03-03T10:03:11.469Z,20.55
2023-03-03T10:05:59.179Z,19.40
2023-03-03T10:08:31.817Z,18.55
2023-03-03T10:11:33.381Z,19.70
2023-03-03T10:14:44.035Z,19.60
2023-03-03T10:17:25.954Z,20.17
2023-03-03T10:20:09.960Z,18.92
2023-03-03T10:23:21.091Z,20.73
2023-03-03T10:25:59.758Z,18.05
2023-03-03T10:28:54.582Z,24.60
2023-03-03T10:31:51.626Z,21.85
2023-03-03T10:34:49.641Z,22.00
2023-03-03T10:38:00.256Z,19.88
2023-03-03T10:40:43.158Z,19.23
2023-03-03T10:43:31.698Z,19.13
2023-03-03T10:46:49.990Z,22.13
2023-03-03T10:49:46.482Z,22.10
2023-03-03T10:52:42.359Z,28.35
2023-03-03T10:55:31.767Z,19.95
2023-03-03T10:58:48.612Z,21.90
2023-03-03T11:01:49.208Z,21.20
2023-03-03T11:04:44.882Z,20.02
2023-03-03T11:07:47.469Z,21.98
2023-03-03T11:10:50.235Z,14.95
2023-03-03T11:13:42.281Z,20.95
2023-03-03T11:16:48.787Z,16.80
2023-03-03T11:20:06.831Z,13.98
2023-03-03T11:23:02.795Z,18.05
2023-03-03T11:26:09.656Z,29.40
2023-03-03T11:29:01.302Z,27.33
2023-03-03T11:31:42.665Z,28.25
2023-03-03T11:34:44.151Z,16.23
2023-03-03T11:37:41.215Z,15.93
2023-03-03T11:40:25.857Z,19.38
2023-03-03T11:43:18.584Z,24.55
2023-03-03T11:45:59.847Z,19.70
2023-03-03T11:48:41.681Z,21.67
2023-03-03T11:51:36.521Z,19.63
2023-03-03T11:54:11.102Z,19.30
2023-03-03T11:56:47.047Z,18.65
2023-03-03T11:59:38.211Z,19.50
2023-03-03T12:02:51.557Z,17.90
2023-03-03T12:06:01.414Z,19.10
2023-03-03T12:09:03.853Z,20.58
2023-03-03T12:12:16.016Z,16.25
2023-03-03T12:15:13.784Z,18.83
2023-03-03T12:18:08.491Z,21.85
2023-03-03T12:20:52.076Z,13.55
2023-03-03T12:23:56.023Z,15.80
2023-03-03T12:26:53.933Z,19.48
2023-03-03T12:29:55.745Z,19.95
2023-03-03T12:32:48.397Z,18.88
2023-03-03T12:35:31.126Z,22.02
2023-03-03T12:38:25.569Z,21.60
2023-03-03T12:41:08.511Z,20.52
2023-03-03T12:43:59.892Z,15.15
2023-03-03T12:46:45.321Z,18.27
2023-03-03T12:49:13.186Z,16.70
2023-03-03T12:52:16.080Z,16.33
2023-03-03T12:54:56.862Z,17.42
2023-03-03T12:57:43.478Z,16.52
2023-03-03T13:00:40.300Z,19.13
2023-03-03T13:03:43.627Z,14.05
2023-03-03T13:06:32.591Z,17.23
2023-03-03T13:09:31.811Z,16.58
2023-03-03T13:12:31.002Z,18.52
2023-03-03T13:15:11.753Z,15.73
2023-03-03T13:17:59.982Z,16.50
2023-03-03T13:21:06.683Z,17.38
2023-03-03T13:23:47.731Z,15.63
2023-03-03T13:26:44.020Z,17.30
2023-03-03T13:29:42.203Z,15.90
2023-03-03T13:32:18.143Z,13.30
2023-03-03T13:35:15.559Z,17.38
2023-03-03T13:37:49.617Z,14.75
2023-03-03T13:40:29.693Z,19.00
2023-03-03T13:43:13.603Z,12.63
2023-03-03T13:46:26.799Z,17.25
2023-03-03T13:49:36.948Z,14.77
2023-03-03T13:52:14.362Z,15.75
2023-03-03T13:55:14.511Z,16.58
2023-03-03T13:57:56.405Z,15.95
2023-03-03T14:00:37.564Z,11.55
2023-03-03T14:04:02.592Z,18.13
2023-03-03T14:06:30.595Z,15.88
2023-03-03T14:09:52.223Z,15.82
2023-03-03T14:12:30.691Z,20.63
2023-03-03T14:15:20.769Z,18.70
2023-03-03T14:18:20.801Z,22.63
2023-03-03T14:20:51.986Z,19.25
2023-03-03T14:23:57.281Z,17.42
2023-03-03T14:26:24.363Z,16.15
2023-03-03T14:28:53.080Z,19.65
2023-03-03T14:31:43.440Z,20.77
2023-03-03T14:34:41.790Z,18.27
2023-03-03T14:37:23.539Z,28.70
2023-03-03T14:40:07.476Z,20.67
2023-03-03T14:42:45.666Z,15.30
2023-03-03T14:45:41.837Z,28.20
2023-03-03T14:51:24.319Z,26.88
2023-03-03T14:53:52.656Z,29.10
2023-03-03T14:56:33.853Z,14.52
2023-03-03T14:59:21.842Z,32.38
2023-03-03T15:02:29.432Z,24.33
2023-03-03T15:05:20.093Z,18.25
2023-03-03T15:07:53.455Z,28.02
2023-03-03T15:10:40.775Z,20.88
2023-03-03T15:13:33.271Z,22.55
2023-03-03T15:16:00.290Z,16.85
2023-03-03T15:18:29.857Z,20.50
2023-03-03T15:21:05.614Z,17.83
2023-03-03T15:23:58.637Z,19.67
2023-03-03T15:26:48.100Z,15.50
2023-03-03T15:29:28.691Z,15.90
2023-03-03T15:32:30.686Z,20.55
2023-03-03T15:35:28.666Z,17.23
2023-03-03T15:38:39.199Z,17.50
2023-03-03T15:41:23.236Z,17.20
2023-03-03T15:44:26.567Z,18.77
2023-03-03T15:47:05.379Z,20.20
2023-03-03T15:50:06.741Z,25.73
2023-03-03T15:53:14.910Z,24.33
2023-03-03T15:55:52.740Z,27.77
2023-03-03T15:59:19.788Z,19.35
2023-03-03T16:02:26.118Z,18.25
2023-03-03T16:05:12.751Z,17.52
2023-03-03T16:08:14.077Z,18.58
2023-03-03T16:11:17.701Z,17.85
2023-03-03T16:14:01.782Z,20.90
2023-03-03T16:16:52.840Z,18.23
2023-03-03T16:19:37.901Z,17.75
2023-03-03T16:22:31.601Z,15.30
2023-03-03T16:25:25.352Z,19.50
2023-03-03T16:28:26.524Z,18.70
2023-03-03T16:31:14.142Z,17.90
2023-03-03T16:34:10.025Z,16.30
2023-03-03T16:36:55.210Z,15.65
2023-03-03T16:40:00.809Z,15.43
2023-03-03T16:42:30.865Z,22.60
2023-03-03T16:45:23.643Z,15.55
2023-03-03T16:48:26.408Z,15.00
2023-03-03T16:51:34.924Z,14.85
2023-03-03T16:54:09.988Z,15.10
2023-03-03T16:57:14.304Z,22.75
2023-03-03T17:00:03.896Z,16.42
2023-03-03T17:03:28.129Z,15.18
2023-03-03T17:06:02.103Z,15.55
2023-03-03T17:09:31.513Z,12.45
2023-03-03T17:12:21.817Z,13.27
2023-03-03T17:15:19.251Z,12.45
2023-03-03T17:17:57.648Z,8.48
2023-03-03T17:21:10.316Z,8.63
2023-03-03T17:23:51.881Z,9.07
2023-03-03T17:26:56.588Z,9.45
2023-03-03T17:29:44.765Z,8.55
2023-03-03T17:32:54.365Z,6.90
2023-03-03T17:35:32.848Z,6.57
2023-03-03T17:38:47.078Z,8.57
2023-03-03T17:41:40.672Z,8.40
2023-03-03T17:44:40.469Z,8.90
2023-03-03T17:47:34.165Z,9.20
2023-03-03T17:50:10.925Z,10.25
2023-03-03T17:56:03.603Z,9.55
2023-03-03T17:58:44.776Z,9.95
2023-03-03T18:01:40.859Z,9.38
2023-03-03T18:04:27.543Z,9.38
2023-03-03T18:07:31.103Z,9.70
2023-03-03T18:10:03.533Z,9.50
2023-03-03T18:12:37.501Z,9.10
2023-03-03T18:15:33.875Z,10.50
2023-03-03T18:21:15.683Z,9.98
2023-03-03T18:23:48.297Z,11.07
2023-03-03T18:26:36.984Z,9.32
2023-03-03T18:29:27.992Z,9.93
2023-03-03T18:31:57.760Z,9.50
2023-03-03T18:34:38.818Z,9.65
2023-03-03T18:37:29.473Z,9.55
2023-03-03T18:40:03.264Z,9.82
2023-03-03T18:42:41.017Z,10.25
2023-03-03T18:45:28.252Z,8.07
2023-03-03T18:48:13.991Z,9.60
2023-03-03T18:50:47.729Z,8.48
2023-03-03T18:53:30.473Z,7.78
2023-03-03T18:56:02.804Z,10.52
2023-03-03T18:58:36.652Z,8.75
2023-03-03T19:01:37.151Z,8.63
2023-03-03T19:04:21.073Z,7.93
2023-03-03T19:06:47.867Z,8.30
2023-03-03T19:09:28.789Z,7.97
2023-03-03T19:11:56.043Z,8.25
2023-03-03T19:14:29.583Z,9.23
2023-03-03T19:17:23.224Z,8.35
2023-03-03T19:20:19.578Z,8.48
2023-03-03T19:22:49.553Z,9.10
2023-03-03T19:25:22.461Z,9.48
2023-03-03T19:27:52.929Z,8.32
2023-03-03T19:30:42.881Z,10.18
2023-03-03T19:36:41.481Z,7.60
2023-03-03T19:39:31.983Z,8.60
2023-03-03T19:41:58.774Z,8.50
2023-03-03T19:45:02.291Z,9.25
2023-03-03T19:48:03.519Z,9.40
2023-03-03T19:50:49.220Z,8.93
2023-03-03T19:53:59.209Z,9.15
2023-03-03T19:56:37.489Z,9.20
2023-03-03T19:59:37.877Z,8.77
2023-03-03T20:02:13.568Z,9.07
2023-03-03T20:04:55.451Z,9.35
2023-03-03T20:07:58.324Z,9.25
2023-03-03T20:13:37.560Z,9.65
2023-03-03T20:16:50.320Z,8.75
2023-03-03T20:19:43.881Z,11.63
2023-03-03T20:22:34.638Z,10.45
2023-03-03T20:25:30.707Z,9.13
2023-03-03T20:28:34.703Z,9.13
2023-03-03T20:31:16.236Z,9.48
2023-03-03T20:34:19.448Z,8.68
2023-03-03T20:36:57.696Z,9.75
2023-03-03T20:39:52.754Z,8.13
2023-03-03T20:42:38.375Z,8.13
2023-03-03T20:45:29.962Z,9.25
2023-03-03T20:48:35.928Z,8.05
2023-03-03T20:52:04.927Z,9.27
2023-03-03T20:57:56.381Z,8.52
2023-03-03T21:00:44.014Z,8.77
2023-03-03T21:03:39.709Z,7.60
2023-03-03T21:06:17.863Z,8.90
2023-03-03T21:08:56.900Z,9.40
2023-03-03T21:11:32.674Z,8.70
2023-03-03T21:14:26.508Z,8.82
2023-03-03T21:16:57.384Z,9.13
2023-03-03T21:19:28.408Z,8.35
2023-03-03T21:21:57.076Z,9.43
2023-03-03T21:24:44.607Z,10.13
2023-03-03T21:27:37.034Z,11.07
2023-03-03T21:30:07.026Z,8.98
2023-03-03T21:32:46.683Z,9.55
2023-03-03T21:35:17.781Z,9.18
2023-03-03T21:37:47.591Z,9.43
2023-03-03T21:40:40.801Z,9.77
2023-03-03T21:43:07.802Z,7.25
2023-03-03T21:45:34.915Z,6.80
2023-03-03T21:48:04.552Z,8.63
2023-03-03T21:50:32.752Z,10.68
2023-03-03T21:52:59.804Z,9.52
2023-03-03T21:55:26.896Z,9.55
2023-03-03T21:57:53.847Z,9.43
2023-03-03T22:00:21.122Z,10.15
2023-03-03T22:02:48.127Z,10.10
2023-03-03T22:05:15.162Z,8.68
2023-03-03T22:07:42.037Z,8.88
2023-03-03T22:10:10.097Z,10.10
2023-03-03T22:12:37.087Z,8.73
2023-03-03T22:15:04.664Z,8.25
2023-03-03T22:17:31.578Z,10.07
2023-03-03T22:19:58.636Z,9.48
2023-03-03T22:22:25.527Z,8.90
2023-03-03T22:24:53.776Z,9.32
2023-03-03T22:27:20.777Z,9.77
2023-03-03T22:29:47.784Z,9.65
2023-03-03T22:32:14.781Z,9.65
2023-03-03T22:34:42.014Z,8.77
2023-03-03T22:37:08.910Z,9.52
2023-03-03T22:39:35.914Z,8.65
2023-03-03T22:42:03.044Z,8.68
2023-03-03T22:44:29.952Z,8.60
2023-03-03T22:46:56.852Z,8.23
2023-03-03T22:49:23.798Z,9.27
2023-03-03T22:51:50.733Z,8.13
2023-03-03T22:54:17.635Z,8.65
2023-03-03T22:56:44.547Z,8.70
2023-03-03T22:59:11.465Z,9.05
2023-03-03T23:01:38.381Z,7.55
2023-03-03T23:04:05.449Z,9.07
2023-03-03T23:06:32.536Z,8.45
2023-03-03T23:08:59.416Z,7.88
2023-03-03T23:11:27.603Z,9.05
2023-03-03T23:13:54.576Z,6.60
2023-03-03T23:16:21.532Z,7.80
2023-03-03T23:18:48.548Z,8.90
2023-03-03T23:21:15.519Z,9.48
2023-03-03T23:23:42.392Z,8.43
2023-03-03T23:26:09.292Z,8.25
2023-03-03T23:28:36.371Z,8.80
2023-03-03T23:31:03.357Z,8.75
2023-03-03T23:33:30.299Z,6.78
2023-03-03T23:35:57.310Z,8.63
2023-03-03T23:38:24.346Z,8.30
2023-03-03T23:40:51.247Z,9.13
2023-03-03T23:43:18.357Z,8.40
2023-03-03T23:45:45.409Z,8.18
2023-03-03T23:48:12.375Z,8.68
2023-03-03T23:50:39.508Z,8.95
2023-03-03T23:53:07.859Z,8.68
2023-03-03T23:55:36.259Z,8.30
2023-03-03T23:58:03.953Z,7.47
